Bel ons op 035-5771201|info@vliegschool-hilversum.nl

WEER

WEER 2018-02-18T17:33:23+00:00

Local

EHAM

EHAM 201725Z 04006KT 6000 NSC 02/M01 Q1021 NOSIG

EHAM

TAF EHAM 201658Z 2018/2124 03006KT 6000 NSC PROB30 2021/2109 4000 BR BECMG 2108/2111 CAVOK

Weerbulletin Kleine Luchtvaart

Gebruik deze link voor hoogtewinden en omschrijving weersituatie.

METAR Cross-country

EHKD

EHKD 201725Z AUTO 03006KT 2300 R21/2300D BR NCD 02/01 Q1021 YLO 07005KT 3500 BR NSC TEMPO 2000

EHGG

EHGG 201725Z AUTO 02005KT 5000 BR NCD 02/M00 Q1021 BECMG 5000 BR

EDLW

EHLW 201725Z AUTO 04006KT 3100 R05/P3000D BR NCD 01/M01 Q1022 YLO 05007KT 3000 BR NSC

EDDW

EDDW 201720Z 06006KT 9999 FEW036 02/M04 Q1022 NOSIG

EHRD

EHRD 201725Z AUTO 05008KT 6000 NSC 03/M00 Q1020 NOSIG

EHDL

EHDL 201725Z AUTO 04007KT 360V090 9999 BKN100 02/M02 Q1020 BLU

EHEH

EHEH 201725Z AUTO 04006KT 320V090 9999 BKN079 BKN084 OVC100 03/M02 Q1019 BLU 03007KT CAVOK

EBAW

EBAW 201720Z 03006KT CAVOK 04/M02 Q1020 NOSIG

EHBK

EHBK 201725Z AUTO 02006KT 9000 NSC 03/M01 Q1018 NOSIG

TAF Cross-country

EHKD

TAF EHKD 201330Z 2014/2102 08007KT 3500 BR NSC BECMG 2016/2019 5000 NSW

EHGG

TAF EHGG 201722Z 2018/2124 07005KT 7000 NSC BECMG 2018/2021 4500 BR PROB30 TEMPO 2021/2024 2500 MIFG BR BECMG 2107/2110 9999 SCT030 BECMG 2121/2124 6000

EDDW

TAF EDDW 201700Z 2018/2118 06006KT CAVOK

EHRD

TAF EHRD 201700Z 2018/2124 03006KT 6000 NSC PROB30 2021/2109 4000 BR BECMG 2108/2111 CAVOK

EHEH

TAF EHEH 201118Z 2012/2118 08005KT CAVOK PROB40 2102/2108 4000 BR

EHBK

TAF EHBK 201722Z 2018/2124 04007KT CAVOK PROB30 2100/2108 5000 BR

Verwachte regenval vandaag

6 UTC

12 UTC

18 UTC

Disclaimer: Deze tool helpt bij een veilige vluchtuitvoering en de Pilot In Command blijft verantwoordelijk voor gebruik van de originele en meest actuele bronnen. Refresh deze pagina voor het meest actuele weer.

Producten